Time;durP1;ratioP1;P1;durP2;ratioP2;P2;SDS_P1;SDS_P2;PMS_P1;PMS_P2;Temp;Humidity;BMP_temperature;BMP_pressure;BME280_temperature;BME280_humidity;BME280_pressure;Samples;Min_cycle;Max_cycle;Signal;HPM_P1;HPM_P2
2022/01/24 00:40:25;;;;;;;28.33;15.25;;;6.30;99.90;;;;;;6279494;22;20049;-93
2022/01/24 00:43:33;;;;;;;26.67;15.65;;;6.30;99.90;;;;;;6241523;22;20020;-91
2022/01/24 00:57:36;;;;;;;;;;;;;;;;;;;;;
2022/01/24 01:04:24;;;;;;;22.63;12.80;;;6.30;99.90;;;;;;6252998;22;20019;-93
2022/01/24 01:21:42;;;;;;;20.27;11.90;;;6.10;99.90;;;;;;6150177;23;20021;-92
2022/01/24 01:33:28;;;;;;;23.55;12.55;;;6.30;99.90;;;;;;6157835;23;20024;-93
2022/01/24 01:40:02;;;;;;;32.63;15.52;;;6.20;99.90;;;;;;6160342;23;19970;-93
2022/01/24 02:01:26;;;;;;;21.23;12.43;;;6.10;99.90;;;;;;6157628;23;20096;-92
2022/01/24 02:04:48;;;;;;;34.47;16.67;;;6.10;99.90;;;;;;6139382;23;20048;-94
2022/01/24 02:07:55;;;;;;;23.40;13.50;;;6.20;99.90;;;;;;6140359;23;20017;-93
2022/01/24 02:10:55;;;;;;;25.55;14.15;;;6.10;99.90;;;;;;6164124;23;20448;-93
2022/01/24 02:14:28;;;;;;;;;;;;;;;;;;;;;
2022/01/24 02:18:02;;;;;;;24.98;12.63;;;6.20;99.90;;;;;;6194254;23;20543;-92
2022/01/24 02:22:16;;;;;;;19.73;10.63;;;6.30;99.90;;;;;;6256117;22;20115;-92
2022/01/24 02:25:27;;;;;;;20.25;12.15;;;6.20;99.90;;;;;;6255501;22;20474;-92
2022/01/24 02:28:05;;;;;;;25.42;13.35;;;6.20;99.90;;;;;;6229331;22;20069;-91
2022/01/24 02:34:32;;;;;;;32.20;15.23;;;6.30;99.90;;;;;;6198073;22;20023;-92
2022/01/24 02:37:22;;;;;;;36.38;17.08;;;6.20;99.90;;;;;;6253240;22;20000;-93
2022/01/24 02:48:33;;;;;;;27.80;14.13;;;6.10;99.90;;;;;;6128361;23;20359;-93
2022/01/24 02:51:40;;;;;;;33.92;16.52;;;6.20;99.90;;;;;;6100377;23;20021;-92
2022/01/24 02:54:56;;;;;;;52.50;21.48;;;6.20;99.90;;;;;;6190389;22;20019;-95
2022/01/24 02:57:54;;;;;;;32.70;15.27;;;6.10;99.90;;;;;;6229164;22;20099;-91
2022/01/24 03:00:46;;;;;;;24.35;14.25;;;6.10;99.90;;;;;;6228700;22;20024;-95
2022/01/24 03:03:31;;;;;;;;;;;6.20;99.90;;;;;;6228939;22;20020;-92
2022/01/24 03:06:26;;;;;;;26.50;14.15;;;6.20;99.90;;;;;;6228673;22;19943;-92
2022/01/24 03:09:41;;;;;;;45.83;20.10;;;6.10;99.90;;;;;;6259691;22;20091;-95
2022/01/24 03:12:41;;;;;;;53.78;22.35;;;6.10;99.90;;;;;;6252395;22;20019;-94
2022/01/24 03:15:14;;;;;;;40.45;19.95;;;6.00;99.90;;;;;;6227838;22;20019;-93
2022/01/24 03:17:53;;;;;;;45.70;20.77;;;6.00;99.90;;;;;;6217561;22;20020;-93
2022/01/24 03:21:21;;;;;;;;;;;;;;;;;;;;;
2022/01/24 03:25:27;;;;;;;32.10;15.32;;;6.00;99.90;;;;;;6157426;23;20052;-93
2022/01/24 03:41:20;;;;;;;39.10;17.80;;;6.20;99.90;;;;;;6031203;23;20511;-93
2022/01/24 03:44:23;;;;;;;26.60;14.27;;;6.10;99.90;;;;;;6019628;23;20094;-94
2022/01/24 03:50:23;;;;;;;30.63;16.25;;;6.10;99.90;;;;;;6253480;22;20459;-94
2022/01/24 03:53:30;;;;;;;31.60;14.07;;;6.10;99.90;;;;;;6227953;22;20015;-95
2022/01/24 03:56:38;;;;;;;27.63;14.88;;;6.20;99.90;;;;;;6226530;22;20086;-94
2022/01/24 04:04:22;;;;;;;33.10;14.45;;;6.10;99.90;;;;;;6233196;22;20020;-94
2022/01/24 04:07:51;;;;;;;30.05;13.40;;;6.10;99.90;;;;;;6218336;22;20031;-94
2022/01/24 04:10:55;;;;;;;31.42;14.60;;;6.10;99.90;;;;;;6280552;22;20082;-94
2022/01/24 04:13:44;;;;;;;28.88;14.68;;;6.10;99.90;;;;;;6229417;22;20489;-95
2022/01/24 04:16:33;;;;;;;29.88;15.38;;;6.10;99.90;;;;;;6232093;22;20019;-94
2022/01/24 04:21:18;;;;;;;29.02;14.55;;;6.10;99.90;;;;;;6230036;22;20020;-94
2022/01/24 04:22:27;;;;;;;31.67;15.93;;;6.10;99.90;;;;;;6253543;22;20424;-94
2022/01/24 04:25:37;;;;;;;32.90;17.10;;;6.10;99.90;;;;;;6239825;22;20031;-94
2022/01/24 04:28:27;;;;;;;26.05;14.57;;;6.10;99.90;;;;;;6230202;22;20024;-94
2022/01/24 04:31:07;;;;;;;;;;;6.10;99.90;;;;;;6231322;22;20015;-94
2022/01/24 04:33:54;;;;;;;30.52;14.75;;;6.10;99.90;;;;;;6230692;22;19919;-92
2022/01/24 04:40:54;;;;;;;23.60;12.52;;;6.10;99.90;;;;;;6128299;23;20497;-94
2022/01/24 04:47:33;;;;;;;29.35;14.82;;;6.10;99.90;;;;;;6162202;23;20021;-94
2022/01/24 04:53:52;;;;;;;27.33;14.60;;;6.10;99.90;;;;;;6162485;23;20013;-94
2022/01/24 04:56:45;;;;;;;30.55;14.55;;;6.10;99.90;;;;;;6137667;23;20040;-95
2022/01/24 04:59:40;;;;;;;31.88;16.50;;;6.10;99.90;;;;;;6160963;23;20028;-93
2022/01/24 05:02:26;;;;;;;31.80;16.73;;;6.10;99.90;;;;;;6138916;23;20051;-94
2022/01/24 05:10:31;;;;;;;27.48;14.50;;;6.10;99.90;;;;;;6070130;23;20055;-94
2022/01/24 05:50:40;;;;;;;29.95;16.90;;;6.00;99.90;;;;;;6248493;23;20027;-92
2022/01/24 05:53:10;;;;;;;27.17;15.68;;;6.00;99.90;;;;;;6223836;23;20040;-91
2022/01/24 05:55:40;;;;;;;27.67;15.60;;;6.00;99.90;;;;;;6197132;23;20099;-92
2022/01/24 06:01:20;;;;;;;32.50;15.93;;;6.00;99.90;;;;;;6248266;22;20028;-93
2022/01/24 06:04:14;;;;;;;27.08;13.88;;;6.00;99.90;;;;;;6224471;23;20068;-93
2022/01/24 06:07:17;;;;;;;28.17;14.95;;;6.00;99.90;;;;;;6220949;23;20020;-93
2022/01/24 06:15:26;;;;;;;28.73;14.45;;;6.00;99.90;;;;;;6141276;23;20107;-94
2022/01/24 06:19:13;;;;;;;26.95;14.65;;;6.00;99.90;;;;;;6230673;23;20092;-93
2022/01/24 06:21:51;;;;;;;28.07;16.03;;;6.00;99.90;;;;;;6186798;23;20012;-93
2022/01/24 06:24:57;;;;;;;30.70;16.27;;;6.00;99.90;;;;;;6198732;23;20257;-93
2022/01/24 06:28:05;;;;;;;28.20;15.65;;;6.00;99.90;;;;;;6204082;23;20067;-94
2022/01/24 06:30:50;;;;;;;31.25;16.08;;;6.00;99.90;;;;;;6198311;23;20020;-93
2022/01/24 06:33:39;;;;;;;29.45;13.85;;;6.00;99.90;;;;;;6197603;23;20016;-93
2022/01/24 06:36:24;;;;;;;25.95;13.75;;;6.00;99.90;;;;;;6198640;23;20044;-93
2022/01/24 06:39:01;;;;;;;29.08;15.57;;;6.00;99.90;;;;;;6196529;23;20020;-93
2022/01/24 06:42:05;;;;;;;28.77;14.82;;;6.00;99.90;;;;;;6200719;23;20016;-91
2022/01/24 06:44:54;;;;;;;32.72;14.70;;;6.00;99.90;;;;;;6197258;23;20039;-92
2022/01/24 06:47:43;;;;;;;26.10;14.23;;;5.90;99.90;;;;;;6198130;23;20023;-92
2022/01/24 06:50:10;;;;;;;24.63;13.82;;;6.00;99.90;;;;;;6195773;23;20107;-92
2022/01/24 06:52:37;;;;;;;30.45;14.80;;;6.00;99.90;;;;;;6195773;23;20020;-92
2022/01/24 06:55:23;;;;;;;31.25;14.20;;;6.00;99.90;;;;;;6221759;23;20046;-92
2022/01/24 06:58:11;;;;;;;29.95;16.40;;;6.00;99.90;;;;;;6219846;23;20047;-92
2022/01/24 07:00:44;;;;;;;32.00;16.05;;;6.00;99.90;;;;;;6247001;23;20020;-92
2022/01/24 07:03:25;;;;;;;29.17;13.52;;;5.90;99.90;;;;;;6196019;23;20016;-92
2022/01/24 07:05:52;;;;;;;30.10;16.77;;;6.00;99.90;;;;;;6195537;23;20040;-92
2022/01/24 07:08:28;;;;;;;30.85;15.63;;;5.90;99.90;;;;;;6195752;23;20016;-92
2022/01/24 07:11:11;;;;;;;26.85;15.77;;;5.90;99.90;;;;;;6194951;23;20470;-92
2022/01/24 07:13:49;;;;;;;40.28;19.30;;;5.90;99.90;;;;;;6222675;23;20062;-93
2022/01/24 07:16:17;;;;;;;31.63;17.00;;;5.90;99.90;;;;;;6195667;23;20066;-92
2022/01/24 07:18:58;;;;;;;26.70;14.25;;;5.90;99.90;;;;;;6184725;23;20020;-92
2022/01/24 07:21:30;;;;;;;25.30;13.93;;;5.80;99.90;;;;;;6221494;23;20031;-92
2022/01/24 07:24:00;;;;;;;30.67;16.45;;;5.90;99.90;;;;;;6221038;23;20095;-92
2022/01/24 07:26:42;;;;;;;26.38;13.77;;;5.90;99.90;;;;;;6196851;23;20019;-93
2022/01/24 07:29:16;;;;;;;25.02;13.45;;;5.90;99.90;;;;;;6221016;23;20102;-91
2022/01/24 07:31:48;;;;;;;28.88;14.25;;;5.90;99.90;;;;;;6221426;23;20028;-92
2022/01/24 07:34:19;;;;;;;25.65;14.98;;;5.90;99.90;;;;;;6221237;23;20051;-92
2022/01/24 07:36:55;;;;;;;27.23;14.57;;;5.90;99.90;;;;;;6195902;23;20050;-92
2022/01/24 07:39:34;;;;;;;28.10;14.77;;;5.90;99.90;;;;;;6221208;23;20055;-92
2022/01/24 07:42:18;;;;;;;28.40;15.20;;;5.90;99.90;;;;;;6222999;23;20016;-92
2022/01/24 07:44:52;;;;;;;30.60;16.90;;;5.90;99.90;;;;;;6209785;23;20321;-92
2022/01/24 07:47:24;;;;;;;24.52;13.43;;;5.90;99.90;;;;;;6220941;23;20043;-92
2022/01/24 07:50:01;;;;;;;35.65;18.23;;;5.90;99.90;;;;;;6196061;23;20392;-93
2022/01/24 07:52:37;;;;;;;28.15;16.48;;;5.80;99.90;;;;;;6220830;23;20091;-93
2022/01/24 07:55:08;;;;;;;29.48;15.77;;;5.90;99.90;;;;;;6221128;23;20024;-93
2022/01/24 07:57:54;;;;;;;24.98;14.82;;;5.90;99.90;;;;;;6196368;23;20031;-93
2022/01/24 08:00:33;;;;;;;25.15;13.68;;;5.90;99.90;;;;;;6197720;23;20030;-94
2022/01/24 08:03:02;;;;;;;29.00;14.85;;;5.90;99.90;;;;;;6220901;23;20013;-93
2022/01/24 08:09:38;;;;;;;23.83;13.73;;;5.90;99.90;;;;;;6248653;23;20091;-93
2022/01/24 08:12:15;;;;;;;23.90;13.77;;;5.90;99.90;;;;;;6199067;23;20024;-93
2022/01/24 08:14:48;;;;;;;27.83;13.77;;;5.90;99.90;;;;;;6214542;23;20032;-93
2022/01/24 08:17:33;;;;;;;29.35;14.82;;;5.90;99.90;;;;;;6240765;23;20020;-93
2022/01/24 08:20:14;;;;;;;26.17;14.90;;;5.90;99.90;;;;;;6237779;23;20026;-93
2022/01/24 08:23:33;;;;;;;;;;;;;;;;;;;;;
2022/01/24 08:27:18;;;;;;;;;;;;;;;;;;;;;
2022/01/24 08:30:36;;;;;;;24.15;12.43;;;5.80;99.90;;;;;;6222778;23;20023;-93
2022/01/24 08:33:19;;;;;;;23.27;12.88;;;5.90;99.90;;;;;;6199979;23;20054;-92
2022/01/24 08:35:58;;;;;;;34.67;18.65;;;5.90;99.90;;;;;;6198984;23;20020;-93
2022/01/24 08:38:35;;;;;;;27.00;14.52;;;5.90;99.90;;;;;;6200211;23;20024;-91
2022/01/24 08:41:21;;;;;;;33.60;17.90;;;5.80;99.90;;;;;;6250219;23;20508;-93
2022/01/24 08:45:43;;;;;;;27.63;15.35;;;5.80;99.90;;;;;;6224818;23;20023;-92
2022/01/24 08:47:31;;;;;;;30.45;16.05;;;5.80;99.90;;;;;;6222766;23;20047;-93
2022/01/24 08:50:25;;;;;;;25.02;13.35;;;5.80;99.90;;;;;;6223285;23;20020;-93
2022/01/24 08:53:04;;;;;;;28.55;13.88;;;5.90;99.90;;;;;;6199233;23;20016;-94
2022/01/24 08:58:56;;;;;;;29.23;14.18;;;5.90;99.90;;;;;;6214849;23;19915;-93
2022/01/24 09:01:29;;;;;;;29.02;13.95;;;5.90;99.90;;;;;;6247160;23;20020;-93
2022/01/24 09:04:02;;;;;;;20.15;13.02;;;5.90;99.90;;;;;;6223096;23;20090;-92
2022/01/24 09:06:32;;;;;;;30.48;14.88;;;5.90;99.90;;;;;;6197747;23;20115;-93
2022/01/24 09:09:23;;;;;;;26.35;14.73;;;5.90;99.90;;;;;;6197347;23;20076;-93
2022/01/24 09:11:50;;;;;;;23.73;13.07;;;5.90;99.90;;;;;;6221790;23;20024;-94
2022/01/24 09:14:23;;;;;;;25.55;14.80;;;5.90;99.90;;;;;;6198369;23;20028;-93
2022/01/24 09:17:04;;;;;;;29.35;14.98;;;5.90;99.90;;;;;;6199766;23;20024;-94
2022/01/24 09:20:00;;;;;;;27.75;14.73;;;5.90;99.90;;;;;;6198023;23;20071;-93
2022/01/24 09:22:49;;;;;;;23.85;12.85;;;5.90;99.90;;;;;;6200797;23;20012;-93
2022/01/24 09:25:27;;;;;;;23.42;12.60;;;5.90;99.90;;;;;;6197894;23;20016;-93
2022/01/24 09:31:04;;;;;;;23.10;13.90;;;5.90;99.90;;;;;;6247337;22;20051;-93
2022/01/24 09:33:43;;;;;;;22.35;13.85;;;5.90;99.90;;;;;;6197966;23;20386;-93
2022/01/24 09:36:23;;;;;;;21.95;14.07;;;5.90;99.90;;;;;;6198981;23;20451;-94
2022/01/24 09:39:00;;;;;;;23.73;13.55;;;5.90;99.90;;;;;;6195924;23;20047;-94
2022/01/24 09:41:33;;;;;;;23.90;13.23;;;5.90;99.90;;;;;;6220816;23;20347;-94
2022/01/24 09:48:00;;;;;;;27.23;14.02;;;5.90;99.90;;;;;;6205185;23;20454;-92
2022/01/24 09:50:53;;;;;;;28.27;15.70;;;5.90;99.90;;;;;;6199737;23;20409;-93
2022/01/24 10:02:12;;;;;;;46.72;22.55;;;5.80;99.90;;;;;;6097562;23;20379;-93
2022/01/24 10:09:15;;;;;;;27.60;13.65;;;5.70;99.90;;;;;;6150631;22;20151;-92
2022/01/24 10:21:31;;;;;;;25.80;13.85;;;5.90;99.90;;;;;;5899873;24;20116;-92
2022/01/24 10:24:38;;;;;;;30.65;15.77;;;6.00;99.90;;;;;;5948929;23;20113;-92
2022/01/24 10:28:21;;;;;;;;;;;;;;;;;;;;;
2022/01/24 10:32:07;;;;;;;34.63;17.50;;;5.90;99.90;;;;;;5955440;24;20035;-92
2022/01/24 10:36:10;;;;;;;;;;;;;;;;;;;;;
2022/01/24 10:40:04;;;;;;;;;;;;;;;;;;;;;
2022/01/24 10:47:33;;;;;;;46.38;20.75;;;5.90;99.90;;;;;;6229968;22;20016;-92
2022/01/24 10:50:44;;;;;;;;;;;;;;;;;;;;;
2022/01/24 10:58:25;;;;;;;27.38;15.38;;;5.90;99.90;;;;;;6250191;23;20087;-93
2022/01/24 11:07:06;;;;;;;;;;;;;;;;;;;;;
2022/01/24 11:10:28;;;;;;;40.80;19.75;;;5.90;99.90;;;;;;6111417;23;20026;-92
2022/01/24 11:14:19;;;;;;;;;;;;;;;;;;;;;
2022/01/24 11:17:21;;;;;;;28.88;15.50;;;6.00;99.90;;;;;;6123868;23;20106;-93
2022/01/24 11:24:39;;;;;;;41.30;21.05;;;6.00;99.90;;;;;;6092469;23;20066;-92
2022/01/24 11:27:51;;;;;;;28.60;17.00;;;6.00;99.90;;;;;;6055619;23;20019;-93
2022/01/24 11:34:40;;;;;;;;;;;;;;;;;;;;;
2022/01/24 11:37:49;;;;;;;28.45;15.52;;;6.00;99.90;;;;;;6253092;23;20103;-93
2022/01/24 11:40:53;;;;;;;30.23;16.90;;;6.10;99.90;;;;;;6196580;23;20012;-92
2022/01/24 11:44:16;;;;;;;27.77;16.23;;;6.10;99.90;;;;;;6182313;23;20024;-93
2022/01/24 11:47:52;;;;;;;29.27;17.40;;;6.10;99.90;;;;;;6193627;23;20012;-93
2022/01/24 11:51:24;;;;;;;24.10;14.25;;;6.00;99.90;;;;;;6184558;23;20143;-92
2022/01/24 11:55:30;;;;;;;;;;;;;;;;;;;;;
2022/01/24 11:58:08;;;;;;;26.58;14.25;;;6.10;99.90;;;;;;6212378;23;20062;-92
2022/01/24 12:09:13;;;;;;;;;;;;;;;;;;;;;
2022/01/24 12:12:46;;;;;;;24.50;14.18;;;6.10;99.90;;;;;;6251599;23;20452;-92
2022/01/24 12:16:20;;;;;;;26.00;12.88;;;6.20;99.90;;;;;;6202378;23;20507;-92
2022/01/24 12:19:23;;;;;;;25.90;14.00;;;6.20;99.90;;;;;;6162574;23;20091;-93
2022/01/24 12:22:49;;;;;;;21.05;13.93;;;6.20;99.90;;;;;;6119963;23;20018;-92
2022/01/24 12:26:01;;;;;;;25.85;14.32;;;6.20;99.90;;;;;;6124251;23;20014;-93
2022/01/24 12:29:04;;;;;;;;;;;;;;;;;;;;;
2022/01/24 12:33:05;;;;;;;30.30;15.43;;;6.20;99.90;;;;;;6127228;23;20049;-94
2022/01/24 12:37:00;;;;;;;;;;;;;;;;;;;;;
2022/01/24 12:40:41;;;;;;;;;;;;;;;;;;;;;
2022/01/24 12:48:48;;;;;;;;;;;;;;;;;;;;;
2022/01/24 12:52:13;;;;;;;26.43;14.47;;;6.30;99.90;;;;;;6091593;23;20080;-93
2022/01/24 13:00:33;;;;;;;;;;;;;;;;;;;;;
2022/01/24 13:39:10;;;;;;;22.60;13.25;;;6.30;99.90;;;;;;6123941;23;20030;-93
2022/01/24 14:25:22;;;;;;;23.05;13.00;;;6.40;99.90;;;;;;6223734;22;20093;-91
2022/01/24 14:42:25;;;;;;;19.98;12.90;;;6.30;99.90;;;;;;5963167;23;20431;-92
2022/01/24 14:44:57;;;;;;;21.95;12.95;;;6.30;99.90;;;;;;6009918;23;20352;-85
2022/01/24 14:47:28;;;;;;;25.13;14.65;;;6.30;99.90;;;;;;6092029;23;20022;-84
2022/01/24 14:49:55;;;;;;;23.25;15.15;;;6.30;99.90;;;;;;6204033;23;20071;-88
2022/01/24 14:53:16;;;;;;;26.90;14.02;;;6.40;99.90;;;;;;6164791;23;20055;-93
2022/01/24 14:56:50;;;;;;;25.63;14.88;;;6.30;99.90;;;;;;6190727;23;20027;-91
2022/01/24 15:00:39;;;;;;;22.73;14.02;;;6.30;99.90;;;;;;6136545;23;20024;-93
2022/01/24 15:04:27;;;;;;;22.80;13.35;;;6.30;99.90;;;;;;6108600;23;20502;-93
2022/01/24 15:08:47;;;;;;;;;;;;;;;;;;;;;
2022/01/24 15:15:17;;;;;;;24.30;13.95;;;6.30;99.90;;;;;;5932228;24;20453;-93
2022/01/24 15:28:07;;;;;;;23.17;12.88;;;6.30;99.90;;;;;;6088217;23;20543;-93
2022/01/24 15:32:09;;;;;;;24.13;14.82;;;6.30;99.90;;;;;;6074212;23;20161;-92
2022/01/24 15:35:36;;;;;;;22.70;14.60;;;6.20;99.90;;;;;;6046667;23;20032;-92
2022/01/24 15:38:29;;;;;;;29.95;16.38;;;6.30;99.90;;;;;;6042032;23;20019;-91
2022/01/24 15:41:07;;;;;;;26.77;15.75;;;6.20;99.90;;;;;;6049065;23;20067;-91
2022/01/24 15:45:12;;;;;;;30.02;18.33;;;6.20;99.90;;;;;;6109814;23;20097;-90
2022/01/24 16:01:26;;;;;;;30.58;15.77;;;6.20;99.90;;;;;;6219184;23;20348;-92
2022/01/24 16:04:14;;;;;;;29.27;16.20;;;6.20;99.90;;;;;;6168857;23;20052;-93
2022/01/24 16:07:14;;;;;;;30.70;16.45;;;6.20;99.90;;;;;;6172240;23;20013;-91
2022/01/24 16:10:38;;;;;;;28.17;16.20;;;6.20;99.90;;;;;;6173512;23;20073;-94
2022/01/24 16:16:21;;;;;;;28.15;16.55;;;6.10;99.90;;;;;;6162021;23;20024;-92
2022/01/24 16:19:19;;;;;;;26.70;16.15;;;6.10;99.90;;;;;;6140602;23;20444;-92
2022/01/24 16:22:27;;;;;;;24.13;14.90;;;6.10;99.90;;;;;;6163930;23;20021;-92
2022/01/24 16:25:33;;;;;;;24.17;14.90;;;6.10;99.90;;;;;;6148864;23;20024;-93
2022/01/24 16:28:24;;;;;;;28.52;15.60;;;6.10;99.90;;;;;;6163949;23;20084;-92
2022/01/24 16:35:03;;;;;;;25.35;15.27;;;6.10;99.90;;;;;;6135417;23;20096;-92
2022/01/24 16:38:52;;;;;;;25.90;16.10;;;6.10;99.90;;;;;;6027546;23;20023;-92
2022/01/24 16:47:02;;;;;;;23.00;14.77;;;6.10;99.90;;;;;;6050115;23;20029;-92
2022/01/24 16:48:27;;;;;;;24.02;13.88;;;6.10;99.90;;;;;;6035091;23;20498;-92
2022/01/24 16:51:14;;;;;;;27.25;15.90;;;6.10;99.90;;;;;;6057941;23;20023;-92
2022/01/24 16:53:46;;;;;;;24.98;15.50;;;6.10;99.90;;;;;;6043954;23;20023;-92
2022/01/24 16:56:31;;;;;;;26.75;15.13;;;6.10;99.90;;;;;;6041948;23;20325;-92
2022/01/24 16:59:07;;;;;;;25.25;15.27;;;6.00;99.90;;;;;;6040310;23;20084;-93
2022/01/24 17:01:49;;;;;;;28.13;15.98;;;6.00;99.90;;;;;;6095836;23;20025;-93
2022/01/24 17:04:31;;;;;;;26.73;15.75;;;6.00;99.90;;;;;;6162237;23;20021;-93
2022/01/24 17:07:04;;;;;;;27.25;16.23;;;6.00;99.90;;;;;;6162398;23;20071;-92
2022/01/24 17:13:27;;;;;;;24.17;14.45;;;6.00;99.90;;;;;;6252660;22;20026;-91
2022/01/24 17:16:05;;;;;;;23.55;14.63;;;6.00;99.90;;;;;;6221188;22;20020;-92
2022/01/24 17:18:44;;;;;;;22.98;14.07;;;6.00;99.90;;;;;;6221103;23;20027;-91
2022/01/24 17:21:12;;;;;;;28.98;14.85;;;6.00;99.90;;;;;;6221372;23;20024;-91
2022/01/24 17:23:45;;;;;;;22.35;13.50;;;6.00;99.90;;;;;;6196922;23;20099;-91
2022/01/24 17:26:19;;;;;;;22.48;14.10;;;6.00;99.90;;;;;;6197395;23;20020;-90
2022/01/24 17:28:46;;;;;;;22.55;14.73;;;6.00;99.90;;;;;;6196066;23;20020;-90
2022/01/24 17:31:19;;;;;;;21.77;13.60;;;6.00;99.90;;;;;;6198010;23;20012;-90
2022/01/24 17:33:46;;;;;;;23.52;14.10;;;6.00;99.90;;;;;;6197073;23;20024;-90
2022/01/24 17:36:17;;;;;;;23.65;14.77;;;6.00;99.90;;;;;;6222244;23;20020;-92
2022/01/24 17:39:22;;;;;;;24.02;14.30;;;6.00;99.90;;;;;;6199025;23;20020;-91
2022/01/24 17:41:49;;;;;;;23.85;15.75;;;6.00;99.90;;;;;;6196090;23;20472;-90
2022/01/24 17:44:21;;;;;;;22.77;14.85;;;6.00;99.90;;;;;;6222191;23;20020;-90
2022/01/24 17:46:52;;;;;;;28.27;15.05;;;6.00;99.90;;;;;;6196733;23;20019;-91
2022/01/24 17:49:19;;;;;;;23.45;14.18;;;5.90;99.90;;;;;;6220722;23;20344;-90
2022/01/24 17:51:46;;;;;;;23.63;14.25;;;5.90;99.90;;;;;;6195075;23;20085;-90
2022/01/24 17:54:13;;;;;;;25.80;15.70;;;6.00;99.90;;;;;;6220906;23;20078;-90
2022/01/24 17:56:45;;;;;;;24.95;15.52;;;5.90;99.90;;;;;;6196202;23;20028;-91
2022/01/24 17:59:18;;;;;;;29.00;16.05;;;5.90;99.90;;;;;;6197335;23;20026;-91
2022/01/24 18:01:46;;;;;;;22.30;13.43;;;5.70;99.90;;;;;;6221531;23;20020;-90
2022/01/24 18:04:14;;;;;;;22.35;13.07;;;5.60;99.90;;;;;;6197086;23;20024;-90
2022/01/24 18:06:44;;;;;;;25.50;14.40;;;5.80;99.90;;;;;;6222032;23;20016;-90
2022/01/24 18:09:15;;;;;;;21.92;13.18;;;5.90;99.90;;;;;;6221707;23;20020;-91
2022/01/24 18:11:48;;;;;;;20.27;12.32;;;5.90;99.90;;;;;;6196204;23;20016;-90
2022/01/24 18:14:17;;;;;;;20.63;12.45;;;5.90;99.90;;;;;;6221097;23;20478;-91
2022/01/24 18:16:55;;;;;;;23.67;13.75;;;5.90;99.90;;;;;;6247326;23;20020;-91
2022/01/24 18:19:26;;;;;;;22.92;13.98;;;5.90;99.90;;;;;;6195957;23;20024;-91
2022/01/24 18:21:57;;;;;;;21.23;13.10;;;5.90;99.90;;;;;;6221349;23;20022;-92
2022/01/24 18:24:24;;;;;;;19.95;12.52;;;5.90;99.90;;;;;;6220210;23;20076;-91
2022/01/24 18:26:51;;;;;;;20.60;12.85;;;5.90;99.90;;;;;;6195359;23;20475;-91
2022/01/24 18:29:21;;;;;;;20.20;12.75;;;5.90;99.90;;;;;;6195354;23;20024;-91
2022/01/24 18:31:48;;;;;;;18.08;10.98;;;5.90;99.90;;;;;;6220010;23;20387;-91
2022/01/24 18:34:20;;;;;;;21.02;12.88;;;5.90;99.90;;;;;;6196491;23;20031;-89
2022/01/24 18:36:52;;;;;;;21.90;13.68;;;5.90;99.90;;;;;;6195410;23;20020;-91
2022/01/24 18:39:19;;;;;;;23.35;14.35;;;5.90;99.90;;;;;;6220147;23;20055;-90
2022/01/24 18:41:46;;;;;;;21.25;13.27;;;5.90;99.90;;;;;;6246699;23;20019;-91
2022/01/24 18:44:21;;;;;;;19.95;12.45;;;5.90;99.90;;;;;;6220303;23;20026;-91
2022/01/24 18:47:43;;;;;;;22.23;13.25;;;5.90;99.90;;;;;;6246284;23;20019;-92
2022/01/24 18:50:23;;;;;;;22.15;12.13;;;5.90;99.90;;;;;;6197621;23;20012;-91
2022/01/24 18:52:51;;;;;;;25.15;13.07;;;5.90;99.90;;;;;;6194957;23;20020;-91
2022/01/24 18:55:18;;;;;;;22.60;13.50;;;5.90;99.90;;;;;;6194858;23;20048;-91
2022/01/24 18:57:47;;;;;;;18.95;12.60;;;5.90;99.90;;;;;;6219704;23;20344;-91
2022/01/24 19:00:15;;;;;;;25.20;14.88;;;5.90;99.90;;;;;;6219290;23;20020;-90
2022/01/24 19:02:42;;;;;;;20.58;12.70;;;5.90;99.90;;;;;;6219452;23;20447;-91
2022/01/24 19:05:17;;;;;;;38.17;19.88;;;5.90;99.90;;;;;;6195479;23;20023;-91
2022/01/24 19:07:45;;;;;;;24.38;14.32;;;5.90;99.90;;;;;;6219325;23;20012;-91
2022/01/24 19:10:12;;;;;;;25.98;14.27;;;5.80;99.90;;;;;;6219461;23;20095;-91
2022/01/24 19:12:44;;;;;;;28.52;16.20;;;5.80;99.90;;;;;;6220027;23;20062;-91
2022/01/24 19:15:35;;;;;;;24.77;13.45;;;5.90;99.90;;;;;;6220224;23;20351;-92
2022/01/24 19:23:34;;;;;;;22.48;13.65;;;5.90;99.90;;;;;;6221470;23;20043;-90
2022/01/24 19:26:17;;;;;;;24.30;15.35;;;5.90;99.90;;;;;;6221450;23;20027;-91
2022/01/24 19:28:59;;;;;;;24.98;14.13;;;5.90;99.90;;;;;;6226217;23;20016;-90
2022/01/24 19:31:36;;;;;;;25.88;15.52;;;5.90;99.90;;;;;;6222474;22;20004;-91
2022/01/24 19:34:11;;;;;;;24.08;14.63;;;5.90;99.90;;;;;;6213058;23;20108;-90
2022/01/24 19:36:43;;;;;;;44.55;20.70;;;5.90;99.90;;;;;;6227048;23;20020;-90
2022/01/24 19:39:36;;;;;;;25.05;15.35;;;5.80;99.90;;;;;;6197599;23;20340;-92
2022/01/24 19:42:29;;;;;;;24.85;14.95;;;5.90;99.90;;;;;;6220487;23;20424;-93
2022/01/24 19:45:10;;;;;;;24.77;15.55;;;5.80;99.90;;;;;;6220672;23;20023;-92
2022/01/24 19:51:23;;;;;;;29.05;16.05;;;5.80;99.90;;;;;;6156260;23;20410;-89
2022/01/24 19:53:57;;;;;;;26.25;15.13;;;5.80;99.90;;;;;;6235140;23;20066;-90
2022/01/24 19:56:32;;;;;;;31.90;16.67;;;5.80;99.90;;;;;;6223171;23;20039;-92
2022/01/24 19:59:15;;;;;;;31.63;16.50;;;5.80;99.90;;;;;;6221535;23;20353;-90
2022/01/24 20:01:45;;;;;;;30.00;16.88;;;5.80;99.90;;;;;;6220605;23;20048;-91
2022/01/24 20:04:34;;;;;;;35.67;17.35;;;5.80;99.90;;;;;;6196834;23;20020;-93
2022/01/24 20:07:04;;;;;;;32.70;17.48;;;5.80;99.90;;;;;;6245463;23;20027;-91
2022/01/24 20:09:34;;;;;;;56.22;24.90;;;5.70;99.90;;;;;;6195310;23;20071;-93
2022/01/24 20:12:06;;;;;;;40.70;19.98;;;5.60;99.90;;;;;;6221412;23;20095;-92
2022/01/24 20:14:36;;;;;;;30.02;16.75;;;5.60;99.90;;;;;;6245395;23;20024;-91
2022/01/24 20:17:09;;;;;;;39.75;18.63;;;5.60;99.90;;;;;;6194873;23;20019;-93
2022/01/24 20:19:43;;;;;;;39.25;19.48;;;5.70;99.90;;;;;;6246402;22;20078;-93
2022/01/24 20:22:13;;;;;;;36.00;17.63;;;5.70;99.90;;;;;;6194934;23;20024;-91
2022/01/24 20:24:43;;;;;;;47.42;21.15;;;5.70;99.90;;;;;;6219749;23;20156;-90
2022/01/24 20:27:12;;;;;;;32.03;18.00;;;5.70;99.90;;;;;;6221612;23;20038;-92
2022/01/24 20:29:43;;;;;;;43.95;19.92;;;5.70;99.90;;;;;;6220819;23;20031;-92
2022/01/24 20:32:10;;;;;;;32.67;16.75;;;5.70;99.90;;;;;;6196654;23;20016;-91
2022/01/24 20:34:40;;;;;;;38.13;18.73;;;5.70;99.90;;;;;;6197850;23;20106;-90
2022/01/24 20:37:12;;;;;;;37.17;17.70;;;5.70;99.90;;;;;;6221632;23;20021;-93
2022/01/24 20:39:54;;;;;;;47.80;21.67;;;5.70;99.90;;;;;;6221646;23;20020;-91
2022/01/24 20:42:24;;;;;;;49.58;22.85;;;5.60;99.90;;;;;;6197683;23;20359;-93
2022/01/24 20:44:51;;;;;;;42.20;22.80;;;5.50;99.90;;;;;;6221053;23;20047;-92
2022/01/24 20:47:23;;;;;;;44.15;21.52;;;5.50;99.90;;;;;;6221308;23;20020;-91
2022/01/24 20:50:09;;;;;;;44.58;20.25;;;5.60;99.90;;;;;;6221112;23;20410;-92
2022/01/24 20:52:45;;;;;;;33.35;17.52;;;5.60;99.90;;;;;;6222768;23;20014;-92
2022/01/24 20:55:13;;;;;;;34.88;16.95;;;5.70;99.90;;;;;;6248238;23;20043;-92
2022/01/24 20:57:46;;;;;;;;;;;5.70;99.90;;;;;;6221846;23;20023;-92
2022/01/24 21:00:15;;;;;;;27.90;15.40;;;5.60;99.90;;;;;;6196862;23;19915;-92
2022/01/24 21:02:42;;;;;;;37.35;18.13;;;5.70;99.90;;;;;;6196874;23;20035;-93
2022/01/24 21:05:10;;;;;;;37.28;18.77;;;5.70;99.90;;;;;;6248395;23;20062;-91
2022/01/24 21:07:38;;;;;;;36.85;17.67;;;5.70;99.90;;;;;;6196460;23;20042;-93
2022/01/24 21:10:16;;;;;;;49.47;21.00;;;5.60;99.90;;;;;;6197056;23;20023;-93
2022/01/24 21:12:54;;;;;;;43.78;19.95;;;5.60;99.90;;;;;;6221716;23;20016;-93
2022/01/24 21:15:23;;;;;;;42.92;19.58;;;5.60;99.90;;;;;;6221217;23;20210;-92
2022/01/24 21:17:51;;;;;;;36.50;18.25;;;5.50;99.90;;;;;;6196634;23;20020;-91
2022/01/24 21:20:24;;;;;;;45.05;19.52;;;5.60;99.90;;;;;;6221625;23;20024;-93
2022/01/24 21:22:51;;;;;;;38.85;19.20;;;5.60;99.90;;;;;;6197307;23;20359;-93
2022/01/24 21:26:08;;;;;;;40.55;18.90;;;5.50;99.90;;;;;;6131390;23;20022;-94
2022/01/24 21:28:35;;;;;;;41.92;19.88;;;5.60;99.90;;;;;;6219057;23;20012;-93
2022/01/24 21:31:03;;;;;;;39.25;19.48;;;5.60;99.90;;;;;;6221071;23;20074;-93
2022/01/24 21:33:40;;;;;;;38.30;18.13;;;5.60;99.90;;;;;;6221546;23;20020;-91
2022/01/24 21:36:13;;;;;;;43.40;19.80;;;5.60;99.90;;;;;;6222097;23;20016;-91
2022/01/24 21:39:03;;;;;;;40.05;18.85;;;5.60;99.90;;;;;;6200578;23;20404;-92
2022/01/24 21:41:33;;;;;;;47.40;21.40;;;5.60;99.90;;;;;;6196392;23;20023;-93
2022/01/24 21:44:04;;;;;;;47.67;22.10;;;5.60;99.90;;;;;;6221589;23;20016;-91
2022/01/24 21:46:37;;;;;;;41.35;19.58;;;5.60;99.90;;;;;;6245446;23;20016;-92
2022/01/24 21:49:05;;;;;;;49.92;24.23;;;5.60;99.90;;;;;;6195690;23;20016;-93
2022/01/24 21:51:38;;;;;;;42.08;20.58;;;5.60;99.90;;;;;;6221225;23;20020;-93
2022/01/24 21:54:10;;;;;;;36.20;17.42;;;5.60;99.90;;;;;;6196919;23;20102;-93